Dodge City Regional Airport
KDDC : rendu visible

Aérodrome :











RETROUVEZ-NOUS SUR...

 
LOGIN :

S'inscrire | Disclaimer

   EN    FR    IT 

 









Légende :    VFR   VFR Marginal   IFR   IFR Intensif   IFR Très Intensif
Visi : 
Plafond : 
>= 8 km
>= 3000ft
5 à 8 km
1000 à 3000 ft
1500m à 5 km
500 à 1000 ft
800 à 1500m
200 à 500 ft
< 800m
< 200 ft
Symboles :   Orages  Brouillard  Fortes neiges  Fortes précipitations  Vent > 20 kt






- Altitude de l'aérodrome : 2594 ft
- Code IATA : DDC


KDDC - Dodge City Regional

DERNIER METAR :
  • 171752Z AUTO 18018G29KT 3SM BR OVC002 M01/M02 A2991 RMK AO2 PK WND 18030/1730 SLP148 60000 I6003 T10061017 11006 21028 58019

METARs EXPIRÉS :
  • 171710Z AUTO 18021G28KT 3SM BR OVC002 M01/M02 A2993 RMK AO2 PK WND 17028/1658 T10111022
  • 171652Z AUTO 18019G27KT 2 1/2SM BR OVC002 M01/M02 A2995 RMK AO2 PK WND 17035/1628 SLP164 T10111022
  • 171637Z AUTO 17021G35KT 1 3/4SM BR OVC003 M01/M02 A2995 RMK AO2 PK WND 17035/1628 T10111022
  • 171552Z AUTO 17024G34KT 3SM BR OVC003 M02/M03 A2998 RMK AO2 PK WND 17034/1546 SLP175 T10171028
  • 171547Z AUTO 17024G34KT 2 1/2SM BR OVC003 M02/M03 A2997 RMK AO2 PK WND 17034/1546
  • 171525Z AUTO 17025G33KT 1 1/2SM BR OVC002 M02/M03 A2997 RMK AO2 PK WND 17033/1525 T10221033

TAF KDDC
Valide du 17 à 18h jusqu'au 18 à 18h UTC


171754Z 1718/1818 19027KT 3SM BR OVC002
FM171930 19027G38KT P6SM BKN004
FM180000 21023G32KT P6SM FEW250 WS020/24050KT
FM180400 29019G27KT P6SM SCT150
FM180600 33025G36KT P6SM FEW250 WS020/32055KT
FM181500 34015G23KT P6SM SKC WS020/35040KT



MET'MAP, la Météo Aéronautique d'un coup d'oeil ! - Copyright ORBIFLY Décembre 2007 - Disclaimer

ORBIFLY MET'MAP TEAM :

Programmation & Développement : Alexandra Zaïnal
Sur une idée originale de : Baudouin d'Aumeries
Assistance à la programmation : Marc-Olivier Méhu
Soutien technique & logistique : Manuel Goepfert

Contact : metmap@orbifly.com




SOURCES & CREDITS :

   NOAA       Earth
Advisory